sensor_id;sensor_type;location;lat;lon;timestamp;pressure;altitude;pressure_sealevel;temperature;humidity
35023;BME280;21214;44.912;8.204;2023-10-19T00:00:34;99086.66;;;12.86;100.00
35023;BME280;21214;44.912;8.204;2023-10-19T00:03:01;99082.88;;;12.80;100.00
35023;BME280;21214;44.912;8.204;2023-10-19T00:05:34;99090.66;;;12.82;100.00
35023;BME280;21214;44.912;8.204;2023-10-19T00:08:03;99084.88;;;12.78;100.00
35023;BME280;21214;44.912;8.204;2023-10-19T00:10:52;99079.59;;;12.78;100.00
35023;BME280;21214;44.912;8.204;2023-10-19T00:13:32;99080.91;;;12.82;100.00
35023;BME280;21214;44.912;8.204;2023-10-19T00:16:01;99088.69;;;12.84;100.00
35023;BME280;21214;44.912;8.204;2023-10-19T00:18:26;99070.31;;;12.82;100.00
35023;BME280;21214;44.912;8.204;2023-10-19T00:20:53;99080.06;;;12.82;100.00
35023;BME280;21214;44.912;8.204;2023-10-19T00:23:24;99067.81;;;12.81;100.00
35023;BME280;21214;44.912;8.204;2023-10-19T00:25:54;99057.91;;;12.75;100.00
35023;BME280;21214;44.912;8.204;2023-10-19T00:28:19;99062.06;;;12.77;100.00
35023;BME280;21214;44.912;8.204;2023-10-19T00:30:45;99062.06;;;12.77;100.00
35023;BME280;21214;44.912;8.204;2023-10-19T00:33:13;99068.50;;;12.75;100.00
35023;BME280;21214;44.912;8.204;2023-10-19T00:35:43;99061.53;;;12.73;100.00
35023;BME280;21214;44.912;8.204;2023-10-19T00:38:15;99048.66;;;12.70;100.00
35023;BME280;21214;44.912;8.204;2023-10-19T00:40:53;99041.53;;;12.71;100.00
35023;BME280;21214;44.912;8.204;2023-10-19T00:43:29;99044.34;;;12.69;100.00
35023;BME280;21214;44.912;8.204;2023-10-19T00:45:58;99044.00;;;12.72;100.00
35023;BME280;21214;44.912;8.204;2023-10-19T00:48:23;99039.53;;;12.73;100.00
35023;BME280;21214;44.912;8.204;2023-10-19T00:50:52;99047.66;;;12.71;100.00
35023;BME280;21214;44.912;8.204;2023-10-19T00:53:19;99055.41;;;12.73;100.00
35023;BME280;21214;44.912;8.204;2023-10-19T00:55:45;99049.66;;;12.69;100.00
35023;BME280;21214;44.912;8.204;2023-10-19T00:58:11;99047.00;;;12.69;100.00
35023;BME280;21214;44.912;8.204;2023-10-19T01:00:43;99039.06;;;12.69;100.00
35023;BME280;21214;44.912;8.204;2023-10-19T01:03:10;99027.47;;;12.70;100.00
35023;BME280;21214;44.912;8.204;2023-10-19T01:05:36;99021.50;;;12.68;100.00
35023;BME280;21214;44.912;8.204;2023-10-19T01:08:03;99027.81;;;12.67;100.00
35023;BME280;21214;44.912;8.204;2023-10-19T01:10:39;99023.84;;;12.71;100.00
35023;BME280;21214;44.912;8.204;2023-10-19T01:13:05;99019.19;;;12.73;100.00
35023;BME280;21214;44.912;8.204;2023-10-19T01:15:31;99022.03;;;12.72;100.00
35023;BME280;21214;44.912;8.204;2023-10-19T01:18:02;99017.53;;;12.72;100.00
35023;BME280;21214;44.912;8.204;2023-10-19T01:20:30;99014.25;;;12.70;100.00
35023;BME280;21214;44.912;8.204;2023-10-19T01:22:57;99016.22;;;12.68;100.00
35023;BME280;21214;44.912;8.204;2023-10-19T01:25:46;99011.91;;;12.67;100.00
35023;BME280;21214;44.912;8.204;2023-10-19T01:28:21;99002.31;;;12.66;100.00
35023;BME280;21214;44.912;8.204;2023-10-19T01:30:50;98999.03;;;12.64;100.00
35023;BME280;21214;44.912;8.204;2023-10-19T01:33:19;98997.38;;;12.63;100.00
35023;BME280;21214;44.912;8.204;2023-10-19T01:35:44;98991.59;;;12.60;100.00
35023;BME280;21214;44.912;8.204;2023-10-19T01:38:29;98997.22;;;12.57;100.00
35023;BME280;21214;44.912;8.204;2023-10-19T01:40:58;98993.44;;;12.51;100.00
35023;BME280;21214;44.912;8.204;2023-10-19T01:43:32;98984.50;;;12.52;100.00
35023;BME280;21214;44.912;8.204;2023-10-19T01:45:58;98986.16;;;12.53;100.00
35023;BME280;21214;44.912;8.204;2023-10-19T01:48:29;98973.41;;;12.57;100.00
35023;BME280;21214;44.912;8.204;2023-10-19T01:51:05;98973.09;;;12.52;100.00
35023;BME280;21214;44.912;8.204;2023-10-19T01:53:33;98969.59;;;12.59;100.00
35023;BME280;21214;44.912;8.204;2023-10-19T01:56:01;98963.47;;;12.59;100.00
35023;BME280;21214;44.912;8.204;2023-10-19T01:58:31;98966.28;;;12.57;100.00
35023;BME280;21214;44.912;8.204;2023-10-19T02:01:00;98965.63;;;12.55;100.00
35023;BME280;21214;44.912;8.204;2023-10-19T02:03:27;98959.84;;;12.52;100.00
35023;BME280;21214;44.912;8.204;2023-10-19T02:05:58;98956.38;;;12.51;100.00
35023;BME280;21214;44.912;8.204;2023-10-19T02:08:27;98950.63;;;12.48;100.00
35023;BME280;21214;44.912;8.204;2023-10-19T02:10:53;98948.13;;;12.46;100.00
35023;BME280;21214;44.912;8.204;2023-10-19T02:13:21;98947.16;;;12.47;100.00
35023;BME280;21214;44.912;8.204;2023-10-19T02:15:47;98941.03;;;12.47;100.00
35023;BME280;21214;44.912;8.204;2023-10-19T02:18:12;98939.00;;;12.49;100.00
35023;BME280;21214;44.912;8.204;2023-10-19T02:20:37;98933.56;;;12.50;100.00
35023;BME280;21214;44.912;8.204;2023-10-19T02:23:09;98925.97;;;12.47;100.00
35023;BME280;21214;44.912;8.204;2023-10-19T02:25:34;98918.88;;;12.48;100.00
35023;BME280;21214;44.912;8.204;2023-10-19T02:28:03;98927.94;;;12.45;100.00
35023;BME280;21214;44.912;8.204;2023-10-19T02:30:31;98920.19;;;12.44;100.00
35023;BME280;21214;44.912;8.204;2023-10-19T02:32:59;98928.31;;;12.42;100.00
35023;BME280;21214;44.912;8.204;2023-10-19T02:35:25;98913.56;;;12.40;100.00
35023;BME280;21214;44.912;8.204;2023-10-19T02:37:51;98909.59;;;12.44;100.00
35023;BME280;21214;44.912;8.204;2023-10-19T02:40:17;98902.84;;;12.41;100.00
35023;BME280;21214;44.912;8.204;2023-10-19T02:42:46;98905.97;;;12.45;100.00
35023;BME280;21214;44.912;8.204;2023-10-19T02:45:16;98902.84;;;12.41;100.00
35023;BME280;21214;44.912;8.204;2023-10-19T02:47:45;98896.56;;;12.42;100.00
35023;BME280;21214;44.912;8.204;2023-10-19T02:50:11;98898.22;;;12.35;100.00
35023;BME280;21214;44.912;8.204;2023-10-19T02:52:39;98890.16;;;12.20;100.00
35023;BME280;21214;44.912;8.204;2023-10-19T02:55:06;98874.47;;;12.11;100.00
35023;BME280;21214;44.912;8.204;2023-10-19T02:57:32;98875.78;;;12.15;100.00
35023;BME280;21214;44.912;8.204;2023-10-19T02:59:57;98876.81;;;12.06;100.00
35023;BME280;21214;44.912;8.204;2023-10-19T03:02:24;98879.97;;;12.01;100.00
35023;BME280;21214;44.912;8.204;2023-10-19T03:04:52;98862.94;;;11.96;100.00
35023;BME280;21214;44.912;8.204;2023-10-19T03:07:18;98866.59;;;11.95;100.00
35023;BME280;21214;44.912;8.204;2023-10-19T03:09:43;98851.03;;;11.92;100.00
35023;BME280;21214;44.912;8.204;2023-10-19T03:12:20;98858.81;;;11.85;100.00
35023;BME280;21214;44.912;8.204;2023-10-19T03:14:46;98852.38;;;11.87;100.00
35023;BME280;21214;44.912;8.204;2023-10-19T03:17:14;98857.66;;;11.87;100.00
35023;BME280;21214;44.912;8.204;2023-10-19T03:19:40;98855.19;;;11.86;100.00
35023;BME280;21214;44.912;8.204;2023-10-19T03:22:07;98847.28;;;11.78;100.00
35023;BME280;21214;44.912;8.204;2023-10-19T03:24:34;98846.09;;;11.80;100.00
35023;BME280;21214;44.912;8.204;2023-10-19T03:27:08;98845.78;;;11.83;100.00
35023;BME280;21214;44.912;8.204;2023-10-19T03:29:43;98840.16;;;11.86;100.00
35023;BME280;21214;44.912;8.204;2023-10-19T03:32:13;98845.44;;;11.86;100.00
35023;BME280;21214;44.912;8.204;2023-10-19T03:34:39;98848.56;;;11.90;100.00
35023;BME280;21214;44.912;8.204;2023-10-19T03:37:08;98853.38;;;11.95;100.00
35023;BME280;21214;44.912;8.204;2023-10-19T03:39:37;98839.16;;;11.96;100.00
35023;BME280;21214;44.912;8.204;2023-10-19T03:42:03;98843.44;;;11.97;100.00
35023;BME280;21214;44.912;8.204;2023-10-19T03:44:31;98840.78;;;11.97;100.00
35023;BME280;21214;44.912;8.204;2023-10-19T03:47:09;98839.78;;;11.98;100.00
35023;BME280;21214;44.912;8.204;2023-10-19T03:49:39;98845.44;;;11.95;100.00
35023;BME280;21214;44.912;8.204;2023-10-19T03:52:06;98836.81;;;12.01;100.00
35023;BME280;21214;44.912;8.204;2023-10-19T03:54:34;98835.66;;;12.03;100.00
35023;BME280;21214;44.912;8.204;2023-10-19T03:57:04;98827.19;;;12.08;100.00
35023;BME280;21214;44.912;8.204;2023-10-19T03:59:31;98827.53;;;12.13;100.00
35023;BME280;21214;44.912;8.204;2023-10-19T04:01:59;98820.44;;;12.05;100.00
35023;BME280;21214;44.912;8.204;2023-10-19T04:04:25;98808.22;;;11.96;100.00
35023;BME280;21214;44.912;8.204;2023-10-19T04:06:52;98807.13;;;11.82;100.00
35023;BME280;21214;44.912;8.204;2023-10-19T04:09:23;98805.25;;;11.91;100.00
35023;BME280;21214;44.912;8.204;2023-10-19T04:11:55;98795.66;;;11.98;100.00
35023;BME280;21214;44.912;8.204;2023-10-19T04:14:21;98779.47;;;12.01;100.00
35023;BME280;21214;44.912;8.204;2023-10-19T04:16:46;98783.59;;;12.04;100.00
35023;BME280;21214;44.912;8.204;2023-10-19T04:19:13;98784.78;;;12.01;100.00
35023;BME280;21214;44.912;8.204;2023-10-19T04:21:40;98771.03;;;12.06;100.00
35023;BME280;21214;44.912;8.204;2023-10-19T04:24:09;98767.03;;;12.10;100.00
35023;BME280;21214;44.912;8.204;2023-10-19T04:26:35;98777.28;;;12.13;100.00
35023;BME280;21214;44.912;8.204;2023-10-19T04:29:06;98775.31;;;12.07;100.00
35023;BME280;21214;44.912;8.204;2023-10-19T04:31:39;98768.25;;;11.99;100.00
35023;BME280;21214;44.912;8.204;2023-10-19T04:34:20;98769.59;;;11.95;100.00
35023;BME280;21214;44.912;8.204;2023-10-19T04:36:47;98767.44;;;11.90;100.00
35023;BME280;21214;44.912;8.204;2023-10-19T04:39:12;98764.84;;;11.82;100.00
35023;BME280;21214;44.912;8.204;2023-10-19T04:41:39;98771.78;;;11.83;100.00
35023;BME280;21214;44.912;8.204;2023-10-19T04:44:05;98772.91;;;11.81;100.00
35023;BME280;21214;44.912;8.204;2023-10-19T04:46:33;98769.63;;;11.79;100.00
35023;BME280;21214;44.912;8.204;2023-10-19T04:48:59;98772.91;;;11.89;100.00
35023;BME280;21214;44.912;8.204;2023-10-19T04:51:24;98769.09;;;11.92;100.00
35023;BME280;21214;44.912;8.204;2023-10-19T04:53:50;98757.53;;;11.93;100.00
35023;BME280;21214;44.912;8.204;2023-10-19T04:56:15;98752.59;;;11.81;100.00
35023;BME280;21214;44.912;8.204;2023-10-19T04:58:40;98744.66;;;11.89;100.00
35023;BME280;21214;44.912;8.204;2023-10-19T05:01:07;98735.38;;;11.94;100.00
35023;BME280;21214;44.912;8.204;2023-10-19T05:03:32;98728.41;;;12.01;100.00
35023;BME280;21214;44.912;8.204;2023-10-19T05:05:58;98728.06;;;12.04;100.00
35023;BME280;21214;44.912;8.204;2023-10-19T05:08:24;98732.00;;;12.08;100.00
35023;BME280;21214;44.912;8.204;2023-10-19T05:10:54;98736.97;;;12.11;100.00
35023;BME280;21214;44.912;8.204;2023-10-19T05:13:20;98737.97;;;12.02;100.00
35023;BME280;21214;44.912;8.204;2023-10-19T05:15:46;98725.09;;;11.99;100.00
35023;BME280;21214;44.912;8.204;2023-10-19T05:18:11;98723.75;;;12.03;100.00
35023;BME280;21214;44.912;8.204;2023-10-19T05:20:37;98720.63;;;12.07;100.00
35023;BME280;21214;44.912;8.204;2023-10-19T05:23:08;98718.44;;;12.11;100.00
35023;BME280;21214;44.912;8.204;2023-10-19T05:25:34;98715.81;;;12.11;100.00
35023;BME280;21214;44.912;8.204;2023-10-19T05:28:01;98696.75;;;12.15;100.00
35023;BME280;21214;44.912;8.204;2023-10-19T05:30:27;98689.94;;;12.21;100.00
35023;BME280;21214;44.912;8.204;2023-10-19T05:32:52;98704.50;;;12.25;100.00
35023;BME280;21214;44.912;8.204;2023-10-19T05:35:18;98702.31;;;12.28;100.00
35023;BME280;21214;44.912;8.204;2023-10-19T05:37:54;98695.22;;;12.29;100.00
35023;BME280;21214;44.912;8.204;2023-10-19T05:40:22;98692.19;;;12.32;100.00
35023;BME280;21214;44.912;8.204;2023-10-19T05:42:49;98693.84;;;12.33;100.00
35023;BME280;21214;44.912;8.204;2023-10-19T05:45:14;98699.97;;;12.34;100.00
35023;BME280;21214;44.912;8.204;2023-10-19T05:47:42;98698.81;;;12.36;100.00
35023;BME280;21214;44.912;8.204;2023-10-19T05:50:09;98703.06;;;12.37;100.00
35023;BME280;21214;44.912;8.204;2023-10-19T05:52:34;98708.56;;;12.36;100.00
35023;BME280;21214;44.912;8.204;2023-10-19T05:55:00;98701.16;;;12.31;100.00
35023;BME280;21214;44.912;8.204;2023-10-19T05:57:25;98696.91;;;12.22;100.00
35023;BME280;21214;44.912;8.204;2023-10-19T05:59:51;98705.66;;;12.22;100.00
35023;BME280;21214;44.912;8.204;2023-10-19T06:02:17;98707.94;;;12.25;100.00
35023;BME280;21214;44.912;8.204;2023-10-19T06:04:43;98695.53;;;12.26;100.00
35023;BME280;21214;44.912;8.204;2023-10-19T06:07:08;98693.94;;;12.17;100.00
35023;BME280;21214;44.912;8.204;2023-10-19T06:09:35;98695.25;;;12.21;100.00
35023;BME280;21214;44.912;8.204;2023-10-19T06:12:01;98693.59;;;12.20;100.00
35023;BME280;21214;44.912;8.204;2023-10-19T06:14:26;98697.25;;;12.19;100.00
35023;BME280;21214;44.912;8.204;2023-10-19T06:16:53;98712.31;;;12.18;100.00
35023;BME280;21214;44.912;8.204;2023-10-19T06:19:19;98707.84;;;12.19;100.00
35023;BME280;21214;44.912;8.204;2023-10-19T06:21:44;98707.84;;;12.19;100.00
35023;BME280;21214;44.912;8.204;2023-10-19T06:24:10;98704.53;;;12.17;100.00
35023;BME280;21214;44.912;8.204;2023-10-19T06:26:41;98707.84;;;12.19;100.00
35023;BME280;21214;44.912;8.204;2023-10-19T06:29:06;98710.47;;;12.19;100.00
35023;BME280;21214;44.912;8.204;2023-10-19T06:31:32;98709.47;;;12.20;100.00
35023;BME280;21214;44.912;8.204;2023-10-19T06:33:57;98711.78;;;12.23;100.00
35023;BME280;21214;44.912;8.204;2023-10-19T06:36:24;98717.47;;;12.12;100.00
35023;BME280;21214;44.912;8.204;2023-10-19T06:38:49;98709.16;;;12.15;100.00
35023;BME280;21214;44.912;8.204;2023-10-19T06:41:16;98707.34;;;12.15;100.00
35023;BME280;21214;44.912;8.204;2023-10-19T06:43:43;98712.47;;;12.17;100.00
35023;BME280;21214;44.912;8.204;2023-10-19T06:46:09;98714.66;;;12.13;100.00
35023;BME280;21214;44.912;8.204;2023-10-19T06:48:38;98707.19;;;12.17;100.00
35023;BME280;21214;44.912;8.204;2023-10-19T06:51:03;98701.72;;;12.18;100.00
35023;BME280;21214;44.912;8.204;2023-10-19T06:53:30;98701.22;;;12.15;100.00
35023;BME280;21214;44.912;8.204;2023-10-19T06:55:56;98700.22;;;12.16;100.00
35023;BME280;21214;44.912;8.204;2023-10-19T06:58:22;98708.53;;;12.13;100.00
35023;BME280;21214;44.912;8.204;2023-10-19T07:00:52;98721.22;;;12.17;100.00
35023;BME280;21214;44.912;8.204;2023-10-19T07:03:30;98718.06;;;12.22;100.00
35023;BME280;21214;44.912;8.204;2023-10-19T07:05:55;98719.34;;;12.26;100.00
35023;BME280;21214;44.912;8.204;2023-10-19T07:08:21;98706.78;;;12.28;100.00
35023;BME280;21214;44.912;8.204;2023-10-19T07:10:47;98712.53;;;12.31;100.00
35023;BME280;21214;44.912;8.204;2023-10-19T07:13:14;98708.38;;;12.37;100.00
35023;BME280;21214;44.912;8.204;2023-10-19T07:15:41;98707.38;;;12.38;100.00
35023;BME280;21214;44.912;8.204;2023-10-19T07:18:06;98713.03;;;12.35;100.00
35023;BME280;21214;44.912;8.204;2023-10-19T07:20:33;98709.72;;;12.33;100.00
35023;BME280;21214;44.912;8.204;2023-10-19T07:23:02;98702.44;;;12.35;100.00
35023;BME280;21214;44.912;8.204;2023-10-19T07:25:46;98702.09;;;12.38;100.00
35023;BME280;21214;44.912;8.204;2023-10-19T07:28:19;98699.72;;;12.43;100.00
35023;BME280;21214;44.912;8.204;2023-10-19T07:30:45;98681.53;;;12.48;100.00
35023;BME280;21214;44.912;8.204;2023-10-19T07:33:11;98675.88;;;12.51;100.00
35023;BME280;21214;44.912;8.204;2023-10-19T07:35:46;98655.66;;;12.58;100.00
35023;BME280;21214;44.912;8.204;2023-10-19T07:38:13;98644.34;;;12.64;100.00
35023;BME280;21214;44.912;8.204;2023-10-19T07:40:39;98650.38;;;12.73;100.00
35023;BME280;21214;44.912;8.204;2023-10-19T07:43:04;98666.09;;;12.75;100.00
35023;BME280;21214;44.912;8.204;2023-10-19T07:45:30;98672.69;;;12.79;100.00
35023;BME280;21214;44.912;8.204;2023-10-19T07:47:57;98681.28;;;12.81;100.00
35023;BME280;21214;44.912;8.204;2023-10-19T07:50:22;98681.28;;;12.81;100.00
35023;BME280;21214;44.912;8.204;2023-10-19T07:52:52;98671.13;;;12.84;100.00
35023;BME280;21214;44.912;8.204;2023-10-19T07:55:19;98678.91;;;12.86;100.00
35023;BME280;21214;44.912;8.204;2023-10-19T07:57:45;98676.09;;;12.87;100.00
35023;BME280;21214;44.912;8.204;2023-10-19T08:00:11;98670.78;;;12.87;100.00
35023;BME280;21214;44.912;8.204;2023-10-19T08:02:40;98665.84;;;12.84;100.00
35023;BME280;21214;44.912;8.204;2023-10-19T08:05:09;98651.16;;;12.82;100.00
35023;BME280;21214;44.912;8.204;2023-10-19T08:07:37;98657.72;;;12.86;100.00
35023;BME280;21214;44.912;8.204;2023-10-19T08:10:04;98668.31;;;12.86;100.00
35023;BME280;21214;44.912;8.204;2023-10-19T08:12:30;98684.22;;;12.86;100.00
35023;BME280;21214;44.912;8.204;2023-10-19T08:14:57;98677.91;;;12.87;100.00
35023;BME280;21214;44.912;8.204;2023-10-19T08:17:23;98671.63;;;12.88;100.00
35023;BME280;21214;44.912;8.204;2023-10-19T08:19:48;98666.31;;;12.88;100.00
35023;BME280;21214;44.912;8.204;2023-10-19T08:22:15;98653.75;;;12.90;100.00
35023;BME280;21214;44.912;8.204;2023-10-19T08:24:40;98653.75;;;12.90;100.00
35023;BME280;21214;44.912;8.204;2023-10-19T08:27:08;98653.38;;;12.93;100.00
35023;BME280;21214;44.912;8.204;2023-10-19T08:29:38;98652.38;;;12.94;100.00
35023;BME280;21214;44.912;8.204;2023-10-19T08:32:04;98653.03;;;12.96;100.00
35023;BME280;21214;44.912;8.204;2023-10-19T08:34:34;98639.97;;;12.94;100.00
35023;BME280;21214;44.912;8.204;2023-10-19T08:37:01;98640.59;;;12.96;100.00
35023;BME280;21214;44.912;8.204;2023-10-19T08:39:27;98643.22;;;12.96;100.00
35023;BME280;21214;44.912;8.204;2023-10-19T08:41:53;98638.75;;;12.97;100.00
35023;BME280;21214;44.912;8.204;2023-10-19T08:44:20;98640.41;;;12.98;100.00
35023;BME280;21214;44.912;8.204;2023-10-19T08:46:46;98644.06;;;12.97;100.00
35023;BME280;21214;44.912;8.204;2023-10-19T08:49:14;98649.72;;;12.94;100.00
35023;BME280;21214;44.912;8.204;2023-10-19T08:51:43;98660.38;;;12.86;100.00
35023;BME280;21214;44.912;8.204;2023-10-19T08:54:14;98659.28;;;12.80;100.00
35023;BME280;21214;44.912;8.204;2023-10-19T08:56:40;98653.97;;;12.80;100.00
35023;BME280;21214;44.912;8.204;2023-10-19T08:59:07;98657.63;;;12.79;100.00
35023;BME280;21214;44.912;8.204;2023-10-19T09:01:32;98651.16;;;12.82;100.00
35023;BME280;21214;44.912;8.204;2023-10-19T09:04:00;98634.91;;;12.85;100.00
35023;BME280;21214;44.912;8.204;2023-10-19T09:06:26;98637.84;;;12.90;100.00
35023;BME280;21214;44.912;8.204;2023-10-19T09:08:53;98644.59;;;12.92;100.00
35023;BME280;21214;44.912;8.204;2023-10-19T09:11:19;98630.19;;;12.95;100.00
35023;BME280;21214;44.912;8.204;2023-10-19T09:13:46;98618.59;;;12.96;100.00
35023;BME280;21214;44.912;8.204;2023-10-19T09:16:15;98613.59;;;13.01;100.00
35023;BME280;21214;44.912;8.204;2023-10-19T09:18:41;98605.91;;;13.06;100.00
35023;BME280;21214;44.912;8.204;2023-10-19T09:21:07;98606.34;;;13.09;100.00
35023;BME280;21214;44.912;8.204;2023-10-19T09:23:32;98612.78;;;13.15;100.00
35023;BME280;21214;44.912;8.204;2023-10-19T09:25:59;98616.75;;;13.19;100.00
35023;BME280;21214;44.912;8.204;2023-10-19T09:28:28;98620.00;;;13.21;100.00
35023;BME280;21214;44.912;8.204;2023-10-19T09:30:54;98623.31;;;13.23;100.00
35023;BME280;21214;44.912;8.204;2023-10-19T09:33:20;98611.72;;;13.24;100.00
35023;BME280;21214;44.912;8.204;2023-10-19T09:35:47;98605.41;;;13.25;100.00
35023;BME280;21214;44.912;8.204;2023-10-19T09:38:16;98601.13;;;13.24;100.00
35023;BME280;21214;44.912;8.204;2023-10-19T09:40:47;98600.47;;;13.22;100.00
35023;BME280;21214;44.912;8.204;2023-10-19T09:43:15;98591.50;;;13.23;100.00
35023;BME280;21214;44.912;8.204;2023-10-19T09:45:41;98583.56;;;13.23;100.00
35023;BME280;21214;44.912;8.204;2023-10-19T09:48:07;98571.97;;;13.24;100.00
35023;BME280;21214;44.912;8.204;2023-10-19T09:50:33;98573.63;;;13.25;100.00
35023;BME280;21214;44.912;8.204;2023-10-19T09:52:59;98576.53;;;13.30;100.00
35023;BME280;21214;44.912;8.204;2023-10-19T09:55:28;98571.69;;;13.34;100.00
35023;BME280;21214;44.912;8.204;2023-10-19T09:57:56;98575.34;;;13.33;100.00
35023;BME280;21214;44.912;8.204;2023-10-19T10:00:23;98590.06;;;13.35;100.00
35023;BME280;21214;44.912;8.204;2023-10-19T10:02:52;98587.41;;;13.35;100.00
35023;BME280;21214;44.912;8.204;2023-10-19T10:10:42;98596.19;;;13.36;100.00
35023;BME280;21214;44.912;8.204;2023-10-19T10:15:52;98596.63;;;13.39;100.00
35023;BME280;21214;44.912;8.204;2023-10-19T10:18:18;98596.28;;;13.42;100.00
35023;BME280;21214;44.912;8.204;2023-10-19T10:20:43;98598.81;;;13.50;100.00
35023;BME280;21214;44.912;8.204;2023-10-19T10:23:21;98604.38;;;13.56;100.00
35023;BME280;21214;44.912;8.204;2023-10-19T10:25:53;98607.66;;;13.58;100.00
35023;BME280;21214;44.912;8.204;2023-10-19T10:28:19;98610.31;;;13.58;100.00
35023;BME280;21214;44.912;8.204;2023-10-19T10:33:40;98596.41;;;13.56;100.00
35023;BME280;21214;44.912;8.204;2023-10-19T10:36:06;98573.59;;;13.55;100.00
35023;BME280;21214;44.912;8.204;2023-10-19T10:38:34;98564.59;;;13.56;100.00
35023;BME280;21214;44.912;8.204;2023-10-19T10:41:05;98566.91;;;13.59;100.00
35023;BME280;21214;44.912;8.204;2023-10-19T10:43:47;98576.50;;;13.60;100.00
35023;BME280;21214;44.912;8.204;2023-10-19T10:46:13;98564.59;;;13.56;100.00
35023;BME280;21214;44.912;8.204;2023-10-19T10:48:42;98539.75;;;13.57;100.00
35023;BME280;21214;44.912;8.204;2023-10-19T10:51:28;98500.25;;;13.62;100.00
35023;BME280;21214;44.912;8.204;2023-10-19T10:53:57;98488.13;;;13.74;100.00
35023;BME280;21214;44.912;8.204;2023-10-19T10:56:23;98505.34;;;13.78;100.00
35023;BME280;21214;44.912;8.204;2023-10-19T10:58:49;98502.53;;;13.86;100.00
35023;BME280;21214;44.912;8.204;2023-10-19T11:01:15;98500.28;;;13.83;100.00
35023;BME280;21214;44.912;8.204;2023-10-19T11:04:04;98504.50;;;13.99;100.00
35023;BME280;21214;44.912;8.204;2023-10-19T11:06:31;98501.53;;;14.08;100.00
35023;BME280;21214;44.912;8.204;2023-10-19T11:08:59;98507.72;;;14.15;100.00
35023;BME280;21214;44.912;8.204;2023-10-19T11:11:37;98504.81;;;14.10;100.00
35023;BME280;21214;44.912;8.204;2023-10-19T11:14:10;98496.22;;;14.08;100.00
35023;BME280;21214;44.912;8.204;2023-10-19T11:16:37;98503.41;;;14.14;100.00
35023;BME280;21214;44.912;8.204;2023-10-19T11:19:05;98497.75;;;14.17;100.00
35023;BME280;21214;44.912;8.204;2023-10-19T11:21:31;98498.00;;;14.22;100.00
35023;BME280;21214;44.912;8.204;2023-10-19T11:23:56;98508.84;;;14.27;100.00
35023;BME280;21214;44.912;8.204;2023-10-19T11:26:23;98497.47;;;14.33;100.00
35023;BME280;21214;44.912;8.204;2023-10-19T11:28:59;98499.00;;;14.43;100.00
35023;BME280;21214;44.912;8.204;2023-10-19T11:31:35;98497.84;;;14.52;100.00
35023;BME280;21214;44.912;8.204;2023-10-19T11:34:05;98488.97;;;14.66;100.00
35023;BME280;21214;44.912;8.204;2023-10-19T11:36:33;98487.41;;;14.78;100.00
35023;BME280;21214;44.912;8.204;2023-10-19T11:38:59;98483.34;;;14.82;100.00
35023;BME280;21214;44.912;8.204;2023-10-19T11:41:25;98491.53;;;14.87;100.00
35023;BME280;21214;44.912;8.204;2023-10-19T11:43:55;98504.34;;;14.77;100.00
35023;BME280;21214;44.912;8.204;2023-10-19T11:46:20;98497.63;;;14.81;100.00
35023;BME280;21214;44.912;8.204;2023-10-19T11:48:50;98480.50;;;14.84;100.00
35023;BME280;21214;44.912;8.204;2023-10-19T11:51:16;98468.63;;;14.86;100.00
35023;BME280;21214;44.912;8.204;2023-10-19T11:53:42;98458.25;;;14.91;100.00
35023;BME280;21214;44.912;8.204;2023-10-19T11:56:11;98451.53;;;14.95;100.00
35023;BME280;21214;44.912;8.204;2023-10-19T11:58:38;98449.47;;;14.97;100.00
35023;BME280;21214;44.912;8.204;2023-10-19T12:01:05;98447.47;;;14.99;100.00
35023;BME280;21214;44.912;8.204;2023-10-19T12:03:36;98454.22;;;15.02;100.00
35023;BME280;21214;44.912;8.204;2023-10-19T12:06:08;98458.50;;;15.03;100.00
35023;BME280;21214;44.912;8.204;2023-10-19T12:08:36;98447.06;;;15.02;100.00
35023;BME280;21214;44.912;8.204;2023-10-19T12:11:04;98437.28;;;15.09;100.00
35023;BME280;21214;44.912;8.204;2023-10-19T12:13:41;98422.59;;;15.13;100.00
35023;BME280;21214;44.912;8.204;2023-10-19T12:16:08;98419.75;;;15.22;100.00
35023;BME280;21214;44.912;8.204;2023-10-19T12:18:36;98420.97;;;15.26;100.00
35023;BME280;21214;44.912;8.204;2023-10-19T12:21:03;98434.88;;;15.21;100.00
35023;BME280;21214;44.912;8.204;2023-10-19T12:23:33;98447.13;;;15.22;100.00
35023;BME280;21214;44.912;8.204;2023-10-19T12:25:59;98427.13;;;15.20;100.00
35023;BME280;21214;44.912;8.204;2023-10-19T12:28:29;98427.13;;;15.20;100.00
35023;BME280;21214;44.912;8.204;2023-10-19T12:30:55;98411.53;;;15.10;100.00
35023;BME280;21214;44.912;8.204;2023-10-19T12:33:21;98419.25;;;14.98;100.00
35023;BME280;21214;44.912;8.204;2023-10-19T12:35:48;98425.34;;;14.92;100.00
35023;BME280;21214;44.912;8.204;2023-10-19T12:38:16;98420.44;;;14.89;100.00
35023;BME280;21214;44.912;8.204;2023-10-19T12:40:43;98425.72;;;14.83;100.00
35023;BME280;21214;44.912;8.204;2023-10-19T12:43:09;98411.41;;;14.77;100.00
35023;BME280;21214;44.912;8.204;2023-10-19T12:45:36;98382.38;;;14.75;100.00
35023;BME280;21214;44.912;8.204;2023-10-19T12:48:04;98363.75;;;14.69;100.00
35023;BME280;21214;44.912;8.204;2023-10-19T12:50:29;98360.69;;;14.65;100.00
35023;BME280;21214;44.912;8.204;2023-10-19T12:52:58;98363.13;;;14.60;100.00
35023;BME280;21214;44.912;8.204;2023-10-19T12:55:27;98368.44;;;14.60;100.00
35023;BME280;21214;44.912;8.204;2023-10-19T12:57:53;98370.84;;;14.55;100.00
35023;BME280;21214;44.912;8.204;2023-10-19T13:00:19;98363.47;;;14.51;100.00
35023;BME280;21214;44.912;8.204;2023-10-19T13:02:51;98361.81;;;14.50;100.00
35023;BME280;21214;44.912;8.204;2023-10-19T13:05:27;98367.97;;;14.50;100.00